Time;durP1;ratioP1;P1;durP2;ratioP2;P2;SDS_P1;SDS_P2;PMS_P1;PMS_P2;Temp;Humidity;BMP_temperature;BMP_pressure;BME280_temperature;BME280_humidity;BME280_pressure;Samples;Min_cycle;Max_cycle;Signal;HPM_P1;HPM_P2
2022/07/20 00:00:55;;;;;;;;;;;10.90;99.90;;;;;;4996284;28;19952;-74
2022/07/20 00:03:21;;;;;;;;;;;11.00;99.90;;;;;;4996463;28;19910;-74
2022/07/20 00:05:49;;;;;;;;;;;11.00;99.90;;;;;;4996207;28;20380;-74
2022/07/20 00:11:19;;;;;;;;;;;11.00;99.90;;;;;;4996309;28;20253;-73
2022/07/20 00:11:20;;;;;;;;;;;10.90;99.90;;;;;;4986478;28;19920;-73
2022/07/20 00:13:48;;;;;;;;;;;10.80;99.90;;;;;;4976157;28;19964;-74
2022/07/20 00:16:15;;;;;;;;;;;10.80;99.90;;;;;;4991797;28;19909;-74
2022/07/20 00:18:41;;;;;;;;;;;10.60;99.90;;;;;;4996165;28;19972;-74
2022/07/20 00:21:08;;;;;;;;;;;10.70;99.90;;;;;;4996107;28;19910;-74
2022/07/20 00:23:35;;;;;;;;;;;10.90;99.90;;;;;;4996172;28;20360;-74
2022/07/20 00:26:01;;;;;;;;;;;10.80;99.90;;;;;;4996037;28;19914;-74
2022/07/20 00:28:28;;;;;;;;;;;10.90;99.90;;;;;;4996153;28;20249;-74
2022/07/20 00:30:55;;;;;;;;;;;10.80;99.90;;;;;;4995968;28;19914;-75
2022/07/20 00:33:22;;;;;;;;;;;10.90;99.90;;;;;;4995991;28;19953;-74
2022/07/20 00:35:48;;;;;;;;;;;10.90;99.90;;;;;;4995833;28;19910;-74
2022/07/20 00:38:15;;;;;;;;;;;10.90;99.90;;;;;;4995688;28;19925;-74
2022/07/20 00:40:42;;;;;;;;;;;10.90;99.90;;;;;;4995683;28;20406;-73
2022/07/20 00:43:08;;;;;;;;;;;11.00;99.90;;;;;;4995654;28;20364;-74
2022/07/20 00:45:35;;;;;;;;;;;11.10;99.90;;;;;;4995773;28;19917;-73
2022/07/20 00:48:02;;;;;;;;;;;11.20;99.90;;;;;;4995666;28;19910;-74
2022/07/20 00:50:28;;;;;;;;;;;11.20;99.90;;;;;;4995692;28;19910;-73
2022/07/20 00:52:55;;;;;;;;;;;11.30;99.90;;;;;;4995118;28;19957;-73
2022/07/20 00:55:23;;;;;;;;;;;11.30;99.90;;;;;;4995508;28;20008;-73
2022/07/20 00:57:49;;;;;;;;;;;11.40;99.90;;;;;;4995394;28;19914;-73
2022/07/20 01:00:16;;;;;;;;;;;11.40;99.90;;;;;;4995451;28;20009;-73
2022/07/20 01:02:43;;;;;;;;;;;11.50;99.90;;;;;;4995302;28;19914;-73
2022/07/20 01:05:16;;;;;;;;;;;11.60;99.90;;;;;;4994607;28;20261;-74
2022/07/20 01:07:46;;;;;;;;;;;11.60;99.90;;;;;;4995046;28;19932;-74
2022/07/20 01:10:14;;;;;;;;;;;11.70;99.90;;;;;;4994841;28;19965;-73
2022/07/20 01:12:44;;;;;;;;;;;11.70;99.90;;;;;;4995017;28;19996;-73
2022/07/20 01:15:11;;;;;;;;;;;11.90;99.90;;;;;;4994914;28;19969;-74
2022/07/20 01:17:37;;;;;;;;;;;11.90;99.90;;;;;;4994851;28;19961;-74
2022/07/20 01:20:04;;;;;;;;;;;12.00;99.90;;;;;;4994928;28;20009;-73
2022/07/20 01:22:31;;;;;;;;;;;12.20;99.90;;;;;;4994845;28;20382;-73
2022/07/20 01:24:58;;;;;;;;;;;12.30;99.90;;;;;;4994549;28;19910;-73
2022/07/20 01:27:25;;;;;;;;;;;12.30;99.90;;;;;;4994853;28;19917;-73
2022/07/20 01:29:52;;;;;;;;;;;12.30;99.90;;;;;;4994808;28;20004;-73
2022/07/20 01:32:18;;;;;;;;;;;12.10;99.90;;;;;;4994845;28;20364;-73
2022/07/20 01:34:45;;;;;;;;;;;11.90;99.90;;;;;;4994667;28;19910;-74
2022/07/20 01:37:12;;;;;;;;;;;11.80;99.90;;;;;;4994402;28;20253;-73
2022/07/20 01:39:39;;;;;;;;;;;11.90;99.90;;;;;;4994656;28;19918;-72
2022/07/20 01:42:05;;;;;;;;;;;12.00;99.90;;;;;;4994594;28;19909;-73
2022/07/20 01:44:32;;;;;;;;;;;12.00;99.90;;;;;;4994418;28;19909;-73
2022/07/20 01:46:59;;;;;;;;;;;12.10;99.90;;;;;;4994389;28;19910;-74
2022/07/20 01:49:27;;;;;;;;;;;12.10;99.90;;;;;;4994569;28;19920;-73
2022/07/20 01:51:54;;;;;;;;;;;12.10;99.90;;;;;;4993329;28;19910;-73
2022/07/20 01:54:21;;;;;;;;;;;12.20;99.90;;;;;;4994551;28;20013;-73
2022/07/20 01:56:48;;;;;;;;;;;12.20;99.90;;;;;;4994507;28;20280;-73
2022/07/20 01:59:14;;;;;;;;;;;12.00;99.90;;;;;;4994239;28;19918;-74
2022/07/20 02:01:41;;;;;;;;;;;12.00;99.90;;;;;;4994560;28;19957;-73
2022/07/20 02:04:08;;;;;;;;;;;12.10;99.90;;;;;;4994182;28;20391;-74
2022/07/20 02:06:34;;;;;;;;;;;12.00;99.90;;;;;;4994349;28;19916;-73
2022/07/20 02:09:01;;;;;;;;;;;12.00;99.90;;;;;;4993925;28;19909;-74
2022/07/20 02:11:28;;;;;;;;;;;12.10;99.90;;;;;;4992981;28;20383;-73
2022/07/20 02:13:55;;;;;;;;;;;12.10;99.90;;;;;;4993957;28;20360;-73
2022/07/20 02:16:22;;;;;;;;;;;12.00;99.90;;;;;;4993991;28;19932;-73
2022/07/20 02:18:50;;;;;;;;;;;12.10;99.90;;;;;;4994170;28;19917;-74
2022/07/20 02:21:18;;;;;;;;;;;12.10;99.90;;;;;;4993516;28;19916;-74
2022/07/20 02:23:45;;;;;;;;;;;12.00;99.90;;;;;;4993869;28;20272;-73
2022/07/20 02:26:12;;;;;;;;;;;12.10;99.90;;;;;;4994024;28;20310;-73
2022/07/20 02:28:39;;;;;;;;;;;12.20;99.90;;;;;;4994032;28;19917;-73
2022/07/20 02:31:09;;;;;;;;;;;12.20;99.90;;;;;;4994314;28;19914;-73
2022/07/20 02:33:36;;;;;;;;;;;12.10;99.90;;;;;;4994130;28;19909;-73
2022/07/20 02:36:02;;;;;;;;;;;12.10;99.90;;;;;;4994200;28;19916;-74
2022/07/20 02:38:29;;;;;;;;;;;12.20;99.90;;;;;;4993722;28;19925;-74
2022/07/20 02:40:56;;;;;;;;;;;12.20;99.90;;;;;;4993700;28;19932;-73
2022/07/20 02:43:22;;;;;;;;;;;12.30;99.90;;;;;;4993985;28;19910;-73
2022/07/20 02:45:49;;;;;;;;;;;12.40;99.90;;;;;;4993861;28;19917;-73
2022/07/20 02:48:16;;;;;;;;;;;12.50;99.90;;;;;;4994024;28;19996;-73
2022/07/20 02:50:43;;;;;;;;;;;12.50;99.90;;;;;;4993831;28;20303;-75
2022/07/20 02:53:10;;;;;;;;;;;12.60;99.90;;;;;;4993396;28;19913;-75
2022/07/20 02:55:38;;;;;;;;;;;12.80;99.90;;;;;;4993886;28;20272;-75
2022/07/20 02:58:04;;;;;;;;;;;12.90;99.90;;;;;;4993591;28;19914;-75
2022/07/20 03:00:31;;;;;;;;;;;12.90;99.90;;;;;;4993754;28;19960;-74
2022/07/20 03:02:59;;;;;;;;;;;13.00;99.90;;;;;;4993489;28;19964;-74
2022/07/20 03:05:26;;;;;;;;;;;13.10;99.90;;;;;;4993545;28;19932;-74
2022/07/20 03:07:53;;;;;;;;;;;13.20;99.90;;;;;;4993617;28;19910;-74
2022/07/20 03:10:20;;;;;;;;;;;13.20;99.90;;;;;;4993793;28;20379;-74
2022/07/20 03:12:47;;;;;;;;;;;13.20;99.90;;;;;;4993581;28;20300;-74
2022/07/20 03:15:14;;;;;;;;;;;13.30;99.90;;;;;;4993159;28;19909;-75
2022/07/20 03:17:42;;;;;;;;;;;13.30;99.90;;;;;;4993557;28;19929;-73
2022/07/20 03:20:09;;;;;;;;;;;13.20;99.90;;;;;;4993541;28;19910;-73
2022/07/20 03:22:36;;;;;;;;;;;13.20;99.90;;;;;;4993395;28;20383;-74
2022/07/20 03:25:03;;;;;;;;;;;13.30;99.90;;;;;;4993249;28;20019;-73
2022/07/20 03:27:29;;;;;;;;;;;13.40;99.90;;;;;;4993581;28;19910;-74
2022/07/20 03:29:56;;;;;;;;;;;13.40;99.90;;;;;;4993511;28;19910;-74
2022/07/20 03:32:23;;;;;;;;;;;13.40;99.90;;;;;;4993598;28;20013;-73
2022/07/20 03:34:49;;;;;;;;;;;13.30;99.90;;;;;;4996984;28;19976;-74
2022/07/20 03:37:16;;;;;;;;;;;13.20;99.90;;;;;;4996804;28;19917;-73
2022/07/20 03:39:43;;;;;;;;;;;13.20;99.90;;;;;;4996911;28;20311;-74
2022/07/20 03:42:09;;;;;;;;;;;13.00;99.90;;;;;;4996822;28;19922;-76
2022/07/20 03:44:36;;;;;;;;;;;13.00;99.90;;;;;;4997034;28;19910;-76
2022/07/20 03:47:03;;;;;;;;;;;13.10;99.90;;;;;;4996778;28;19910;-74
2022/07/20 03:49:29;;;;;;;;;;;13.00;99.90;;;;;;4996903;28;20360;-73
2022/07/20 03:51:56;;;;;;;;;;;13.10;99.90;;;;;;5011665;28;20005;-74
2022/07/20 03:54:23;;;;;;;;;;;13.20;99.90;;;;;;4996560;28;19910;-75
2022/07/20 03:56:50;;;;;;;;;;;13.10;99.90;;;;;;4996741;28;20001;-74
2022/07/20 03:59:16;;;;;;;;;;;13.10;99.90;;;;;;4996652;28;19964;-73
2022/07/20 04:01:43;;;;;;;;;;;13.10;99.90;;;;;;4996630;28;19952;-75
2022/07/20 04:04:10;;;;;;;;;;;13.30;99.90;;;;;;4996343;28;20355;-73
2022/07/20 04:06:36;;;;;;;;;;;13.40;99.90;;;;;;4996271;28;19929;-74
2022/07/20 04:09:03;;;;;;;;;;;13.40;99.90;;;;;;4996178;28;19910;-74
2022/07/20 04:11:30;;;;;;;;;;;13.50;99.90;;;;;;4996415;28;19909;-74
2022/07/20 04:13:57;;;;;;;;;;;13.60;99.90;;;;;;4996290;28;20352;-73
2022/07/20 04:16:24;;;;;;;;;;;13.60;99.90;;;;;;4996192;28;20009;-73
2022/07/20 04:42:36;;;;;;;;;;;14.10;99.90;;;;;;5109294;27;20284;-71
2022/07/20 04:45:03;;;;;;;;;;;14.10;99.90;;;;;;5110897;28;19993;-71
2022/07/20 04:47:30;;;;;;;;;;;14.10;99.90;;;;;;5110922;28;20375;-71
2022/07/20 04:49:56;;;;;;;;;;;13.90;99.90;;;;;;5110996;28;19908;-71
2022/07/20 04:52:23;;;;;;;;;;;13.80;99.90;;;;;;5110058;28;20354;-71
2022/07/20 04:54:50;;;;;;;;;;;13.70;99.90;;;;;;5110144;28;20254;-71
2022/07/20 04:57:17;;;;;;;;;;;13.60;99.90;;;;;;5111069;28;19915;-71
2022/07/20 04:59:43;;;;;;;;;;;13.50;99.90;;;;;;5110680;28;19966;-71
2022/07/20 05:02:10;;;;;;;;;;;13.30;99.90;;;;;;5109606;28;20250;-71
2022/07/20 05:04:37;;;;;;;;;;;13.10;99.90;;;;;;5110045;28;19912;-71
2022/07/20 05:07:04;;;;;;;;;;;13.00;99.90;;;;;;5110637;28;20306;-72
2022/07/20 05:09:31;;;;;;;;;;;12.80;99.90;;;;;;5110463;28;20033;-72
2022/07/20 05:11:57;;;;;;;;;;;12.60;99.90;;;;;;5109349;28;19994;-71
2022/07/20 05:14:24;;;;;;;;;;;12.50;99.90;;;;;;5109745;28;19916;-70
2022/07/20 05:16:51;;;;;;;;;;;12.40;99.90;;;;;;5110226;28;19915;-71
2022/07/20 05:19:17;;;;;;;;;;;12.40;99.90;;;;;;5110280;28;19912;-71
2022/07/20 05:21:44;;;;;;;;;;;12.30;99.90;;;;;;5109235;28;19916;-71
2022/07/20 05:24:11;;;;;;;;;;;12.30;99.90;;;;;;5109945;28;19912;-71
2022/07/20 05:26:38;;;;;;;;;;;12.30;99.90;;;;;;5109604;28;19908;-71
2022/07/20 05:29:04;;;;;;;;;;;12.20;99.90;;;;;;5109704;28;20309;-71
2022/07/20 05:31:31;;;;;;;;;;;12.20;99.90;;;;;;5109123;28;20263;-70
2022/07/20 05:33:58;;;;;;;;;;;12.20;99.90;;;;;;5110122;28;19958;-71
2022/07/20 05:36:25;;;;;;;;;;;12.20;99.90;;;;;;5109282;28;19918;-71
2022/07/20 05:38:52;;;;;;;;;;;12.20;99.90;;;;;;5109946;28;19915;-71
2022/07/20 05:41:18;;;;;;;;;;;12.20;99.90;;;;;;5108803;28;20449;-71
2022/07/20 05:43:45;;;;;;;;;;;12.20;99.90;;;;;;5110208;28;19912;-71
2022/07/20 05:46:12;;;;;;;;;;;12.20;99.90;;;;;;5109311;28;19934;-70
2022/07/20 05:48:39;;;;;;;;;;;12.20;99.90;;;;;;5109842;28;19916;-71
2022/07/20 05:51:06;;;;;;;;;;;12.20;99.90;;;;;;5108821;28;19912;-72
2022/07/20 05:53:32;;;;;;;;;;;12.20;99.90;;;;;;5098306;28;19908;-71
2022/07/20 05:55:59;;;;;;;;;;;12.20;99.90;;;;;;5095532;28;19977;-71
2022/07/20 05:58:26;;;;;;;;;;;12.20;99.90;;;;;;5095750;28;19953;-71
2022/07/20 06:00:52;;;;;;;;;;;12.20;99.90;;;;;;5095043;28;19978;-71
2022/07/20 06:03:19;;;;;;;;;;;12.20;99.90;;;;;;5096107;28;19987;-72
2022/07/20 06:05:46;;;;;;;;;;;12.30;99.90;;;;;;5095697;28;19941;-71
2022/07/20 06:08:12;;;;;;;;;;;12.20;99.90;;;;;;5094857;28;19959;-71
2022/07/20 06:10:39;;;;;;;;;;;12.30;99.90;;;;;;5092998;28;19916;-71
2022/07/20 06:13:06;;;;;;;;;;;12.20;99.90;;;;;;5095648;28;20285;-71
2022/07/20 06:15:32;;;;;;;;;;;12.20;99.90;;;;;;5095733;28;19912;-71
2022/07/20 06:18:01;;;;;;;;;;;12.20;99.90;;;;;;5095793;28;19916;-71
2022/07/20 06:20:28;;;;;;;;;;;12.10;99.90;;;;;;5095638;28;19916;-71
2022/07/20 06:22:54;;;;;;;;;;;12.10;99.90;;;;;;5095224;28;19922;-70
2022/07/20 06:25:21;;;;;;;;;;;12.00;99.90;;;;;;5095463;28;19908;-71
2022/07/20 06:27:48;;;;;;;;;;;11.90;99.90;;;;;;5094938;28;19912;-71
2022/07/20 06:30:14;;;;;;;;;;;12.00;99.90;;;;;;5093727;28;19912;-70
2022/07/20 06:32:42;;;;;;;;;;;11.90;99.90;;;;;;5094923;28;19938;-70
2022/07/20 06:35:09;;;;;;;;;;;11.90;99.90;;;;;;5095514;28;19915;-71
2022/07/20 06:37:36;;;;;;;;;;;11.80;99.90;;;;;;5094872;28;19959;-71
2022/07/20 06:40:03;;;;;;;;;;;11.80;99.90;;;;;;5094664;28;19953;-71
2022/07/20 06:42:30;;;;;;;;;;;11.90;99.90;;;;;;5074169;28;19921;-71
2022/07/20 06:44:57;;;;;;;;;;;11.80;99.90;;;;;;5075052;28;20353;-71
2022/07/20 06:47:23;;;;;;;;;;;11.80;99.90;;;;;;5074942;28;20357;-71
2022/07/20 06:49:50;;;;;;;;;;;11.70;99.90;;;;;;5074101;28;19934;-71
2022/07/20 06:52:17;;;;;;;;;;;11.70;99.90;;;;;;5073510;28;19913;-71
2022/07/20 06:54:44;;;;;;;;;;;11.70;99.90;;;;;;5074876;28;19915;-71
2022/07/20 06:57:11;;;;;;;;;;;11.70;99.90;;;;;;5074995;28;19915;-70
2022/07/20 06:59:37;;;;;;;;;;;11.70;99.90;;;;;;5073787;28;19916;-71
2022/07/20 07:02:05;;;;;;;;;;;11.70;99.90;;;;;;5072737;28;20366;-71
2022/07/20 07:04:32;;;;;;;;;;;11.60;99.90;;;;;;5072952;28;19908;-71
2022/07/20 07:06:59;;;;;;;;;;;11.60;99.90;;;;;;5074063;28;19955;-71
2022/07/20 07:09:26;;;;;;;;;;;11.60;99.90;;;;;;5074260;28;19919;-71
2022/07/20 07:11:53;;;;;;;;;;;11.60;99.90;;;;;;5057050;28;19927;-71
2022/07/20 07:14:20;;;;;;;;;;;11.70;99.90;;;;;;5073609;28;19912;-71
2022/07/20 07:16:47;;;;;;;;;;;11.70;99.90;;;;;;5073941;28;19908;-70
2022/07/20 07:19:13;;;;;;;;;;;11.70;99.90;;;;;;5074224;28;19909;-71
2022/07/20 07:21:40;;;;;;;;;;;11.60;99.90;;;;;;5072271;28;19920;-71
2022/07/20 07:24:07;;;;;;;;;;;11.70;99.90;;;;;;5073681;28;19950;-71
2022/07/20 07:26:33;;;;;;;;;;;11.70;99.90;;;;;;5074274;28;19964;-71
2022/07/20 07:29:00;;;;;;;;;;;11.70;99.90;;;;;;5073825;28;19928;-71
2022/07/20 07:31:27;;;;;;;;;;;11.70;99.90;;;;;;5072628;28;19912;-71
2022/07/20 07:33:54;;;;;;;;;;;11.70;99.90;;;;;;5073590;28;19948;-70
2022/07/20 07:36:22;;;;;;;;;;;11.70;99.90;;;;;;5073527;28;19959;-71
2022/07/20 07:38:48;;;;;;;;;;;11.60;99.90;;;;;;5073643;28;19909;-71
2022/07/20 07:41:15;;;;;;;;;;;11.70;99.90;;;;;;5081780;28;19928;-71
2022/07/20 07:43:42;;;;;;;;;;;11.60;99.90;;;;;;5093790;28;19915;-71
2022/07/20 07:46:09;;;;;;;;;;;11.60;99.90;;;;;;5093873;28;19954;-71
2022/07/20 07:48:36;;;;;;;;;;;11.60;99.90;;;;;;5093926;28;19912;-70
2022/07/20 07:51:03;;;;;;;;;;;11.60;99.90;;;;;;5093207;28;19918;-70
2022/07/20 07:53:30;;;;;;;;;;;11.70;99.90;;;;;;5093219;28;19908;-71
2022/07/20 07:55:56;;;;;;;;;;;11.70;99.90;;;;;;5094120;28;20369;-71
2022/07/20 07:58:23;;;;;;;;;;;11.70;99.90;;;;;;5094918;28;19963;-72
2022/07/20 08:00:50;;;;;;;;;;;11.70;99.90;;;;;;5092913;28;19924;-71
2022/07/20 08:03:17;;;;;;;;;;;11.70;99.90;;;;;;5093229;28;19990;-71
2022/07/20 08:05:44;;;;;;;;;;;11.70;99.90;;;;;;5093683;28;19908;-72
2022/07/20 08:08:14;;;;;;;;;;;11.70;99.90;;;;;;5091596;28;19999;-72
2022/07/20 08:10:41;;;;;;;;;;;11.60;99.90;;;;;;5091274;28;19916;-72
2022/07/20 08:13:08;;;;;;;;;;;11.60;99.90;;;;;;5091418;28;19973;-71
2022/07/20 08:15:35;;;;;;;;;;;11.60;99.90;;;;;;5093349;28;20440;-71
2022/07/20 08:18:01;;;;;;;;;;;11.70;99.90;;;;;;5093422;28;19912;-71
2022/07/20 08:20:28;;;;;;;;;;;11.70;99.90;;;;;;5087579;28;19947;-71
2022/07/20 08:22:55;;;;;;;;;;;11.60;99.90;;;;;;5092753;28;19920;-71
2022/07/20 08:25:22;;;;;;;;;;;11.60;99.90;;;;;;5093255;28;19912;-71
2022/07/20 08:27:49;;;;;;;;;;;11.60;99.90;;;;;;5093576;28;19955;-71
2022/07/20 08:30:17;;;;;;;;;;;11.50;99.90;;;;;;5092784;28;20374;-71
2022/07/20 08:32:43;;;;;;;;;;;11.50;99.90;;;;;;5092683;28;19994;-71
2022/07/20 08:35:10;;;;;;;;;;;11.50;99.90;;;;;;5093707;28;19908;-71
2022/07/20 08:37:38;;;;;;;;;;;11.50;99.90;;;;;;5093982;28;19908;-71
2022/07/20 08:40:06;;;;;;;;;;;11.50;99.90;;;;;;5094019;28;19919;-71
2022/07/20 08:42:33;;;;;;;;;;;11.50;99.90;;;;;;5093373;28;19967;-71
2022/07/20 08:45:00;;;;;;;;;;;11.50;99.90;;;;;;5093136;28;19908;-71
2022/07/20 08:47:29;;;;;;;;;;;11.50;99.90;;;;;;5092854;28;19908;-71
2022/07/20 08:49:55;;;;;;;;;;;11.50;99.90;;;;;;5093317;28;20010;-71
2022/07/20 08:52:22;;;;;;;;;;;11.50;99.90;;;;;;5091264;28;20377;-71
2022/07/20 08:54:49;;;;;;;;;;;11.50;99.90;;;;;;5092374;28;19916;-71
2022/07/20 08:57:16;;;;;;;;;;;11.50;99.90;;;;;;5092603;28;20436;-71
2022/07/20 08:59:44;;;;;;;;;;;11.50;99.90;;;;;;5092398;28;19953;-71
2022/07/20 09:02:11;;;;;;;;;;;11.50;99.90;;;;;;5090741;28;19927;-71
2022/07/20 09:04:55;;;;;;;;;;;11.50;99.90;;;;;;5092283;28;19908;-71
2022/07/20 09:07:38;;;;;;;;;;;11.50;99.90;;;;;;5091334;28;19931;-71
2022/07/20 09:10:06;;;;;;;;;;;11.40;99.90;;;;;;5091808;28;19908;-72
2022/07/20 09:12:48;;;;;;;;;;;11.50;99.90;;;;;;5091641;28;19964;-71
2022/07/20 09:15:25;;;;;;;;;;;11.40;99.90;;;;;;5090843;28;19912;-71
2022/07/20 09:18:02;;;;;;;;;;;11.40;99.90;;;;;;5089118;28;19914;-71
2022/07/20 09:20:29;;;;;;;;;;;11.60;99.90;;;;;;5092398;28;20362;-71
2022/07/20 09:23:00;;;;;;;;;;;11.60;99.90;;;;;;5092436;28;19969;-71
2022/07/20 09:25:27;;;;;;;;;;;11.50;99.90;;;;;;5092562;28;19915;-71
2022/07/20 09:27:54;;;;;;;;;;;11.60;99.90;;;;;;5093596;28;19940;-72
2022/07/20 09:30:20;;;;;;;;;;;11.60;99.90;;;;;;5096388;28;19908;-71
2022/07/20 09:32:55;;;;;;;;;;;11.50;99.90;;;;;;5096030;28;19964;-71
2022/07/20 09:35:23;;;;;;;;;;;11.60;99.90;;;;;;5096296;28;19912;-71
2022/07/20 09:37:50;;;;;;;;;;;11.70;99.90;;;;;;5096188;28;19909;-71
2022/07/20 09:40:17;;;;;;;;;;;11.70;99.90;;;;;;5095833;28;19909;-71
2022/07/20 09:42:46;;;;;;;;;;;11.70;99.90;;;;;;5095736;28;19916;-71
2022/07/20 09:45:24;;;;;;;;;;;11.70;99.90;;;;;;5097030;28;20286;-71
2022/07/20 09:48:04;;;;;;;;;;;11.70;99.90;;;;;;5096129;28;20372;-71
2022/07/20 09:50:32;;;;;;;;;;;11.70;99.90;;;;;;5096116;28;19996;-71
2022/07/20 09:52:59;;;;;;;;;;;11.70;99.90;;;;;;5095909;28;19908;-71
2022/07/20 09:55:26;;;;;;;;;;;11.60;99.90;;;;;;5098215;28;19908;-71
2022/07/20 09:57:53;;;;;;;;;;;11.60;99.90;;;;;;5095637;28;20000;-71
2022/07/20 10:00:20;;;;;;;;;;;11.60;99.90;;;;;;5093833;28;19909;-71
2022/07/20 10:02:48;;;;;;;;;;;11.60;99.90;;;;;;5094292;28;19916;-71
2022/07/20 10:05:17;;;;;;;;;;;11.60;99.90;;;;;;5094707;28;20228;-70
2022/07/20 10:07:45;;;;;;;;;;;11.50;99.90;;;;;;5094396;28;20007;-71
2022/07/20 10:10:12;;;;;;;;;;;11.50;99.90;;;;;;5094700;28;19934;-71
2022/07/20 10:12:39;;;;;;;;;;;11.50;99.90;;;;;;5096871;28;19912;-71
2022/07/20 10:15:12;;;;;;;;;;;11.50;99.90;;;;;;5096381;28;20362;-71
2022/07/20 10:17:39;;;;;;;;;;;11.50;99.90;;;;;;5096061;28;19915;-70
2022/07/20 10:20:07;;;;;;;;;;;11.50;99.90;;;;;;5095288;28;19928;-71
2022/07/20 10:22:34;;;;;;;;;;;11.50;99.90;;;;;;5094989;28;19920;-71
2022/07/20 10:25:15;;;;;;;;;;;11.50;99.90;;;;;;5095953;28;19914;-71
2022/07/20 10:27:41;;;;;;;;;;;11.50;99.90;;;;;;5095989;28;19954;-71
2022/07/20 10:30:15;;;;;;;;;;;11.50;99.90;;;;;;5095037;28;19908;-71
2022/07/20 10:32:52;;;;;;;;;;;11.40;99.90;;;;;;5092630;28;19955;-71
2022/07/20 10:35:27;;;;;;;;;;;11.40;99.90;;;;;;5095529;28;19914;-71
2022/07/20 10:37:55;;;;;;;;;;;11.40;99.90;;;;;;5095329;28;19999;-71
2022/07/20 10:40:23;;;;;;;;;;;11.30;99.90;;;;;;5093894;28;19943;-71
2022/07/20 10:42:51;;;;;;;;;;;11.30;99.90;;;;;;5095187;28;19919;-71
2022/07/20 10:45:22;;;;;;;;;;;11.30;99.90;;;;;;5095486;28;19908;-71
2022/07/20 10:47:49;;;;;;;;;;;11.30;99.90;;;;;;5095260;28;19916;-71
2022/07/20 10:50:24;;;;;;;;;;;11.30;99.90;;;;;;5094271;28;19919;-71
2022/07/20 10:52:54;;;;;;;;;;;11.30;99.90;;;;;;5093501;28;19916;-71
2022/07/20 10:55:36;;;;;;;;;;;11.30;99.90;;;;;;5076619;28;19909;-71
2022/07/20 10:58:04;;;;;;;;;;;11.30;99.90;;;;;;5074733;28;19908;-71
2022/07/20 11:00:32;;;;;;;;;;;11.30;99.90;;;;;;5081438;28;19916;-71
2022/07/20 11:03:00;;;;;;;;;;;11.20;99.90;;;;;;5095338;28;19951;-71
2022/07/20 11:05:27;;;;;;;;;;;11.30;99.90;;;;;;5093356;28;19908;-71
2022/07/20 11:07:54;;;;;;;;;;;11.30;99.90;;;;;;5093983;28;19931;-71
2022/07/20 11:10:22;;;;;;;;;;;11.30;99.90;;;;;;5093653;28;19912;-71
2022/07/20 11:13:00;;;;;;;;;;;11.30;99.90;;;;;;5094961;28;20425;-71
2022/07/20 11:15:45;;;;;;;;;;;11.30;99.90;;;;;;5094934;28;19944;-71
2022/07/20 11:18:13;;;;;;;;;;;11.30;99.90;;;;;;5092837;28;19912;-72
2022/07/20 11:20:46;;;;;;;;;;;11.30;99.90;;;;;;5092396;28;20023;-71
2022/07/20 11:23:13;;;;;;;;;;;11.20;99.90;;;;;;5092542;28;19956;-71
2022/07/20 11:25:47;;;;;;;;;;;11.20;99.90;;;;;;5091927;28;19908;-71
2022/07/20 11:28:16;;;;;;;;;;;11.20;99.90;;;;;;5092308;28;19908;-71
2022/07/20 11:30:43;;;;;;;;;;;11.10;99.90;;;;;;5092194;28;20332;-71
2022/07/20 11:33:10;;;;;;;;;;;11.10;99.90;;;;;;5092490;28;20382;-71
2022/07/20 11:35:38;;;;;;;;;;;11.10;99.90;;;;;;5092143;28;19915;-71
2022/07/20 11:38:05;;;;;;;;;;;11.10;99.90;;;;;;5092172;28;19908;-71
2022/07/20 11:40:31;;;;;;;;;;;11.10;99.90;;;;;;5092067;28;19960;-71
2022/07/20 11:43:24;;;;;;;;;;;11.10;99.90;;;;;;5091858;28;20345;-71
2022/07/20 11:45:51;;;;;;;;;;;11.20;99.90;;;;;;5091202;28;19977;-71
2022/07/20 11:48:26;;;;;;;;;;;11.10;99.90;;;;;;5092042;28;19908;-71
2022/07/20 11:50:53;;;;;;;;;;;11.10;99.90;;;;;;5091140;28;19909;-71
2022/07/20 11:53:27;;;;;;;;;;;11.20;99.90;;;;;;5092240;28;19908;-70
2022/07/20 11:55:54;;;;;;;;;;;11.20;99.90;;;;;;5091940;28;19912;-72
2022/07/20 11:58:28;;;;;;;;;;;11.10;99.90;;;;;;5091638;28;20410;-72
2022/07/20 12:00:55;;;;;;;;;;;11.10;99.90;;;;;;5091823;28;19916;-71
2022/07/20 12:03:29;;;;;;;;;;;11.10;99.90;;;;;;5091956;28;19920;-71
2022/07/20 12:05:59;;;;;;;;;;;11.10;99.90;;;;;;5091337;28;19947;-71
2022/07/20 12:08:26;;;;;;;;;;;11.10;99.90;;;;;;5091884;28;19908;-71
2022/07/20 12:10:53;;;;;;;;;;;11.20;99.90;;;;;;5091269;28;19940;-72
2022/07/20 12:13:21;;;;;;;;;;;11.30;99.90;;;;;;5091856;28;19908;-72
2022/07/20 12:15:55;;;;;;;;;;;11.20;99.90;;;;;;5091700;28;19908;-72
2022/07/20 12:18:55;;;;;;;;;;;11.30;99.90;;;;;;5091583;28;19916;-71
2022/07/20 12:21:26;;;;;;;;;;;11.30;99.90;;;;;;5078632;28;20368;-71
2022/07/20 12:23:53;;;;;;;;;;;11.30;99.90;;;;;;5091275;28;20258;-71
2022/07/20 12:26:30;;;;;;;;;;;11.20;99.90;;;;;;5091492;28;19953;-71
2022/07/20 12:28:59;;;;;;;;;;;11.30;99.90;;;;;;5091792;28;20415;-71
2022/07/20 12:31:27;;;;;;;;;;;11.20;99.90;;;;;;5091767;28;20018;-72
2022/07/20 12:34:04;;;;;;;;;;;11.30;99.90;;;;;;5091835;28;19909;-72
2022/07/20 12:36:32;;;;;;;;;;;11.20;99.90;;;;;;5090534;28;19954;-72
2022/07/20 12:38:59;;;;;;;;;;;11.30;99.90;;;;;;5091599;28;19912;-71
2022/07/20 12:41:26;;;;;;;;;;;11.30;99.90;;;;;;5091116;28;19946;-72
2022/07/20 12:43:52;;;;;;;;;;;11.30;99.90;;;;;;5091502;28;20003;-72
2022/07/20 12:46:19;;;;;;;;;;;11.30;99.90;;;;;;5091089;28;19916;-72
2022/07/20 12:48:47;;;;;;;;;;;11.40;99.90;;;;;;5091003;28;19915;-71
2022/07/20 12:51:15;;;;;;;;;;;11.30;99.90;;;;;;5090629;28;19938;-71
2022/07/20 12:53:43;;;;;;;;;;;11.20;99.90;;;;;;5091606;28;19908;-71
2022/07/20 12:56:10;;;;;;;;;;;11.20;99.90;;;;;;5090999;28;19969;-72
2022/07/20 12:58:36;;;;;;;;;;;11.20;99.90;;;;;;5091294;28;20017;-72
2022/07/20 13:01:04;;;;;;;;;;;11.10;99.90;;;;;;5090672;28;20259;-72
2022/07/20 13:03:30;;;;;;;;;;;11.20;99.90;;;;;;5093497;28;19912;-72
2022/07/20 13:05:57;;;;;;;;;;;11.10;99.90;;;;;;5095312;28;20366;-72
2022/07/20 13:08:24;;;;;;;;;;;11.10;99.90;;;;;;5095232;28;19908;-72
2022/07/20 13:10:51;;;;;;;;;;;11.10;99.90;;;;;;5095393;28;19908;-72
2022/07/20 13:13:18;;;;;;;;;;;11.10;99.90;;;;;;5095325;28;19912;-72
2022/07/20 13:15:44;;;;;;;;;;;11.10;99.90;;;;;;5094865;28;20400;-72
2022/07/20 13:18:11;;;;;;;;;;;11.10;99.90;;;;;;5095053;28;19995;-71
2022/07/20 13:20:39;;;;;;;;;;;11.20;99.90;;;;;;5094845;28;19912;-71
2022/07/20 13:23:05;;;;;;;;;;;11.10;99.90;;;;;;5094958;28;19970;-71
2022/07/20 13:25:32;;;;;;;;;;;11.10;99.90;;;;;;5094961;28;19912;-72
2022/07/20 13:27:59;;;;;;;;;;;11.10;99.90;;;;;;5094555;28;19908;-72
2022/07/20 13:30:26;;;;;;;;;;;11.10;99.90;;;;;;5094648;28;19912;-72
2022/07/20 13:32:53;;;;;;;;;;;11.10;99.90;;;;;;5094810;28;19908;-72
2022/07/20 13:35:20;;;;;;;;;;;11.00;99.90;;;;;;5094732;28;19915;-72
2022/07/20 13:37:47;;;;;;;;;;;11.00;99.90;;;;;;5094798;28;19911;-72
2022/07/20 13:40:14;;;;;;;;;;;10.90;99.90;;;;;;5094278;28;19947;-71
2022/07/20 13:42:41;;;;;;;;;;;10.90;99.90;;;;;;5094268;28;20328;-71
2022/07/20 13:45:07;;;;;;;;;;;11.00;99.90;;;;;;5094732;28;19915;-71
2022/07/20 13:47:34;;;;;;;;;;;11.00;99.90;;;;;;5094616;28;20255;-71
2022/07/20 13:50:03;;;;;;;;;;;11.00;99.90;;;;;;5094253;28;19999;-71
2022/07/20 13:52:29;;;;;;;;;;;11.00;99.90;;;;;;5094574;28;19908;-72
2022/07/20 13:54:56;;;;;;;;;;;10.90;99.90;;;;;;5094126;28;20331;-72
2022/07/20 13:57:23;;;;;;;;;;;11.00;99.90;;;;;;5094389;28;20007;-72
2022/07/20 13:59:50;;;;;;;;;;;10.90;99.90;;;;;;5094421;28;19915;-71
2022/07/20 14:02:16;;;;;;;;;;;10.90;99.90;;;;;;5093979;28;19919;-72
2022/07/20 14:04:43;;;;;;;;;;;11.00;99.90;;;;;;5094212;28;19915;-72
2022/07/20 14:07:10;;;;;;;;;;;11.00;99.90;;;;;;5093839;28;19912;-71
2022/07/20 14:09:37;;;;;;;;;;;11.00;99.90;;;;;;5094185;28;20285;-71
2022/07/20 14:12:03;;;;;;;;;;;11.10;99.90;;;;;;5093871;28;19912;-71
2022/07/20 14:14:30;;;;;;;;;;;11.00;99.90;;;;;;5093780;28;19919;-71
2022/07/20 14:16:57;;;;;;;;;;;11.00;99.90;;;;;;5094132;28;19975;-71
2022/07/20 14:19:24;;;;;;;;;;;11.00;99.90;;;;;;5093884;28;19908;-71
2022/07/20 14:21:50;;;;;;;;;;;11.00;99.90;;;;;;5093521;28;19916;-71
2022/07/20 14:24:20;;;;;;;;;;;10.90;99.90;;;;;;5093520;28;19908;-72
2022/07/20 14:26:47;;;;;;;;;;;10.90;99.90;;;;;;5093768;28;19908;-72
2022/07/20 14:29:14;;;;;;;;;;;10.80;99.90;;;;;;5093733;28;19908;-72
2022/07/20 14:31:41;;;;;;;;;;;10.80;99.90;;;;;;5093657;28;20278;-72
2022/07/20 14:34:07;;;;;;;;;;;10.80;99.90;;;;;;5093122;28;20010;-72
2022/07/20 14:36:34;;;;;;;;;;;10.80;99.90;;;;;;5093423;28;19918;-71
2022/07/20 14:39:01;;;;;;;;;;;10.70;99.90;;;;;;5093536;28;19912;-71
2022/07/20 14:41:27;;;;;;;;;;;10.70;99.90;;;;;;5093182;28;19928;-72
2022/07/20 14:43:54;;;;;;;;;;;10.70;99.90;;;;;;5093585;28;19934;-72